»·PEaware :: SWA313 KLAX-KSLC

SWA313 :: KLAX-KSLC

FLIGHT INFORMATION

Flight Status: Arrived
Operator:
Southwest Airlines
More flights by this operator :: More flights under this callsign
Pilot: Steve F. (26981)
Aircraft: BOEING 737-900
(B739)
More flights by this aircraft type
Origin: KLAX Los Angeles Intl
United States
Destination: KSLC Salt Lake City Intl
United States
More flights between these airports :: More routes between these airports
Route: OSHNN1 BEALE Q842 WINEN MLF DELTA6
File this flight plan on PilotEdge
Remarks:
Altitude:
(Current/Filed)
37,000ft
Speed:
(Current/Filed)
430kts
Departed: 03-Sep-22 07:22 AM
Arrived: 03-Sep-22 08:48 AM
Distance/Time
Traveled:
512nm/1:26
Distance/Time
To Go:
Arrived

Flight Plot

Page will automatically refresh every two minutes.

Flight plan parsing failed; only flown route is shown


Map Options




Map Legend


Flown Route
Filed Route
Departure Airport
Arrival Airport
Navaid (VOR, NDB)
Fix

Horizontal Profiles

Position Reports

Time Latitude Longitude Heading Altitude Ground
Speed
03-Sep-22 07:03 33.946900 -118.400606 270 134ft 0kts
03-Sep-22 07:04 33.946900 -118.400606 270 134ft 0kts
03-Sep-22 07:05 33.946900 -118.400606 270 134ft 0kts
03-Sep-22 07:06 33.946900 -118.400606 270 134ft 0kts
03-Sep-22 07:07 33.946900 -118.400606 270 134ft 0kts
03-Sep-22 07:08 33.946900 -118.400606 270 134ft 0kts
03-Sep-22 07:09 33.946900 -118.400606 270 134ft 0kts
03-Sep-22 07:10 33.946900 -118.400606 270 134ft 0kts
03-Sep-22 07:11 33.946900 -118.400606 270 134ft 0kts
03-Sep-22 07:12 33.946900 -118.400606 270 134ft 0kts
03-Sep-22 07:13 33.946901 -118.400399 300 134ft 1kts
03-Sep-22 07:14 33.946838 -118.400354 11 134ft 0kts
03-Sep-22 07:15 33.946838 -118.400354 11 134ft 0kts
03-Sep-22 07:16 33.946838 -118.400354 11 134ft 0kts
03-Sep-22 07:17 33.946838 -118.400354 11 134ft 0kts
03-Sep-22 07:18 33.946838 -118.400354 11 134ft 0kts
03-Sep-22 07:19 33.948809 -118.400907 358 134ft 11kts
03-Sep-22 07:20 33.950380 -118.399938 264 134ft 16kts
03-Sep-22 07:21 33.946197 -118.441278 263 1024ft 205kts
03-Sep-22 07:22 33.940563 -118.522107 267 3578ft 273kts
03-Sep-22 07:23 33.933335 -118.612590 248 6649ft 274kts
03-Sep-22 07:24 33.870325 -118.646328 161 9196ft 277kts
03-Sep-22 07:25 33.799024 -118.603124 145 11330ft 311kts
03-Sep-22 07:26 33.719427 -118.538396 139 12458ft 374kts
03-Sep-22 07:27 33.669894 -118.429799 107 14770ft 383kts
03-Sep-22 07:28 33.644925 -118.306929 93 16907ft 393kts
03-Sep-22 07:29 33.659028 -118.176509 59 18831ft 409kts
03-Sep-22 07:30 33.747297 -118.087425 37 20550ft 423kts
03-Sep-22 07:31 33.842360 -118.002400 37 22057ft 430kts
03-Sep-22 07:32 33.939067 -117.914896 37 23314ft 438kts
03-Sep-22 07:33 34.036739 -117.825577 37 24378ft 444kts
03-Sep-22 07:34 34.127394 -117.722816 50 25251ft 453kts
03-Sep-22 07:35 34.206677 -117.603784 50 26120ft 458kts
03-Sep-22 07:36 34.287686 -117.482839 50 26851ft 465kts
03-Sep-22 07:37 34.369557 -117.360847 50 27590ft 470kts
03-Sep-22 07:38 34.451995 -117.237070 50 28407ft 472kts
03-Sep-22 07:39 34.533737 -117.113797 50 29411ft 469kts
03-Sep-22 07:40 34.616728 -116.992290 49 30357ft 467kts
03-Sep-22 07:41 34.699982 -116.871443 49 31273ft 465kts
03-Sep-22 07:42 34.782200 -116.750701 49 32167ft 464kts
03-Sep-22 07:43 34.864384 -116.629792 48 32977ft 463kts
03-Sep-22 07:44 34.951111 -116.514482 46 33792ft 461kts
03-Sep-22 07:45 35.037632 -116.398579 46 34542ft 460kts
03-Sep-22 07:46 35.123674 -116.283224 46 35211ft 460kts
03-Sep-22 07:47 35.209690 -116.167485 46 35825ft 459kts
03-Sep-22 07:48 35.295199 -116.051735 46 36357ft 459kts
03-Sep-22 07:49 35.380320 -115.936082 46 36899ft 457kts
03-Sep-22 07:50 35.465758 -115.819595 46 37065ft 458kts
03-Sep-22 07:51 35.550775 -115.703710 46 37066ft 458kts
03-Sep-22 07:52 35.635419 -115.587202 46 37068ft 457kts
03-Sep-22 07:53 35.719550 -115.471151 46 37069ft 457kts
03-Sep-22 07:54 35.804064 -115.354049 46 37070ft 457kts
03-Sep-22 07:55 35.888280 -115.236896 46 37070ft 456kts
03-Sep-22 07:56 35.972677 -115.119959 45 37070ft 455kts
03-Sep-22 07:57 36.056613 -115.003132 46 37076ft 456kts
03-Sep-22 07:58 36.140268 -114.885530 46 37064ft 454kts
03-Sep-22 07:59 36.237507 -114.789643 27 37052ft 449kts
03-Sep-22 08:00 36.347534 -114.716659 26 37052ft 448kts
03-Sep-22 08:01 36.457958 -114.643530 26 37061ft 448kts
03-Sep-22 08:02 36.567621 -114.570484 26 37073ft 447kts
03-Sep-22 08:03 36.677139 -114.497073 26 37096ft 448kts
03-Sep-22 08:04 36.784431 -114.417903 30 37115ft 449kts
03-Sep-22 08:05 36.889943 -114.333996 30 37132ft 449kts
03-Sep-22 08:06 36.995292 -114.250652 30 37154ft 449kts
03-Sep-22 08:07 37.101352 -114.167299 30 37181ft 449kts
03-Sep-22 08:08 37.206762 -114.083812 30 37185ft 449kts
03-Sep-22 08:09 37.312423 -113.999778 30 37195ft 449kts
03-Sep-22 08:10 37.417598 -113.915829 30 37213ft 447kts
03-Sep-22 08:11 37.522667 -113.831683 30 37232ft 447kts
03-Sep-22 08:12 37.627624 -113.747339 30 37259ft 448kts
03-Sep-22 08:13 37.732808 -113.662808 30 37299ft 447kts
03-Sep-22 08:14 37.837744 -113.577724 30 37339ft 448kts
03-Sep-22 08:15 37.941322 -113.490309 36 37333ft 450kts
03-Sep-22 08:16 38.034790 -113.385024 39 37334ft 452kts
03-Sep-22 08:17 38.128314 -113.278528 38 37331ft 451kts
03-Sep-22 08:18 38.222028 -113.172145 39 37325ft 452kts
03-Sep-22 08:19 38.315521 -113.064798 39 37330ft 452kts
03-Sep-22 08:20 38.420570 -112.980979 21 37320ft 447kts
03-Sep-22 08:21 38.535380 -112.919851 21 37326ft 447kts
03-Sep-22 08:22 38.650149 -112.858792 21 37333ft 447kts
03-Sep-22 08:23 38.764624 -112.797202 21 37334ft 447kts
03-Sep-22 08:24 38.879515 -112.735237 21 37331ft 447kts
03-Sep-22 08:25 38.994010 -112.673234 21 37310ft 447kts
03-Sep-22 08:26 39.109566 -112.610826 21 35040ft 450kts
03-Sep-22 08:27 39.225640 -112.547475 22 32249ft 460kts
03-Sep-22 08:28 39.347767 -112.489852 14 29452ft 475kts
03-Sep-22 08:29 39.477010 -112.447518 14 26653ft 477kts
03-Sep-22 08:30 39.603950 -112.405252 15 23847ft 462kts
03-Sep-22 08:31 39.726314 -112.364549 14 21046ft 446kts
03-Sep-22 08:32 39.844451 -112.325084 14 18247ft 432kts
03-Sep-22 08:33 39.957366 -112.287032 14 17298ft 418kts
03-Sep-22 08:34 40.069590 -112.249141 13 16739ft 415kts
03-Sep-22 08:35 40.180279 -112.211639 13 15438ft 405kts
03-Sep-22 08:36 40.288135 -112.174917 13 14217ft 397kts
03-Sep-22 08:37 40.394088 -112.138832 13 13557ft 392kts
03-Sep-22 08:38 40.499123 -112.102927 13 12895ft 388kts
03-Sep-22 08:39 40.600747 -112.079584 1 11469ft 353kts
03-Sep-22 08:40 40.691862 -112.084758 354 11026ft 299kts
03-Sep-22 08:41 40.767701 -112.093811 354 11012ft 252kts
03-Sep-22 08:42 40.838386 -112.102129 355 9723ft 253kts
03-Sep-22 08:43 40.904407 -112.094393 43 8558ft 228kts
03-Sep-22 08:44 40.909816 -112.020613 111 7380ft 194kts
03-Sep-22 08:45 40.869336 -111.983684 176 6166ft 179kts
03-Sep-22 08:46 40.821570 -111.978631 172 4552ft 154kts
03-Sep-22 08:47 40.791825 -111.975319 204 4235ft 27kts
03-Sep-22 08:48 40.789988 -111.978095 206 4235ft 7kts
03-Sep-22 08:49 40.789030 -111.978338 195 4235ft 0kts
03-Sep-22 08:50 40.789030 -111.978338 195 4235ft 0kts

Navigation Log

Ident Type
Flight plan parsing failed, navigation log unavailable